createdAt,value
2024-02-11T00:00:39.604Z,13.93
2024-02-11T00:03:06.429Z,11.80
2024-02-11T00:05:33.267Z,14.50
2024-02-11T00:08:00.119Z,11.87
2024-02-11T00:10:26.782Z,8.47
2024-02-11T00:12:53.427Z,12.67
2024-02-11T00:15:20.109Z,11.83
2024-02-11T00:17:48.369Z,8.03
2024-02-11T00:20:17.193Z,5.37
2024-02-11T00:22:46.102Z,9.83
2024-02-11T00:25:13.527Z,9.80
2024-02-11T00:27:44.120Z,9.97
2024-02-11T00:30:11.575Z,10.93
2024-02-11T00:32:39.665Z,9.57
2024-02-11T00:35:06.837Z,9.77
2024-02-11T00:37:33.702Z,12.83
2024-02-11T00:40:00.476Z,10.70
2024-02-11T00:42:29.356Z,10.17
2024-02-11T00:44:56.554Z,7.80
2024-02-11T00:47:24.190Z,9.87
2024-02-11T00:49:51.509Z,10.83
2024-02-11T00:52:18.400Z,12.70
2024-02-11T00:54:45.175Z,11.97
2024-02-11T00:57:12.234Z,11.10
2024-02-11T00:59:42.513Z,9.23
2024-02-11T01:02:11.053Z,10.80
2024-02-11T01:04:40.850Z,16.30
2024-02-11T01:07:08.396Z,13.57
2024-02-11T01:09:35.484Z,9.87
2024-02-11T01:12:02.192Z,11.23
2024-02-11T01:14:31.445Z,12.40
2024-02-11T01:16:58.695Z,10.67
2024-02-11T01:19:25.608Z,14.67
2024-02-11T01:21:55.290Z,12.93
2024-02-11T01:24:22.916Z,15.33
2024-02-11T01:26:50.292Z,12.33
2024-02-11T01:29:19.839Z,13.47
2024-02-11T01:31:48.042Z,12.30
2024-02-11T01:34:17.382Z,16.47
2024-02-11T01:36:47.300Z,14.57
2024-02-11T01:39:15.899Z,13.40
2024-02-11T01:41:42.754Z,12.00
2024-02-11T01:44:09.513Z,11.30
2024-02-11T01:46:37.096Z,17.17
2024-02-11T01:49:06.277Z,10.70
2024-02-11T01:51:34.928Z,15.23
2024-02-11T01:54:04.431Z,13.77
2024-02-11T01:56:32.302Z,11.67
2024-02-11T01:58:59.293Z,11.73
2024-02-11T02:01:27.598Z,11.17
2024-02-11T02:03:54.708Z,15.97
2024-02-11T02:06:24.233Z,11.53
2024-02-11T02:08:51.434Z,15.30
2024-02-11T02:11:18.725Z,12.37
2024-02-11T02:13:45.450Z,11.23
2024-02-11T02:16:12.139Z,14.40
2024-02-11T02:18:38.922Z,13.00
2024-02-11T02:21:06.162Z,14.70
2024-02-11T02:23:32.788Z,13.97
2024-02-11T02:26:09.361Z,12.70
2024-02-11T02:28:37.264Z,18.20
2024-02-11T02:31:07.254Z,18.93
2024-02-11T02:33:38.035Z,17.30
2024-02-11T02:36:05.754Z,15.93
2024-02-11T02:38:34.932Z,17.43
2024-02-11T02:41:01.879Z,16.57
2024-02-11T02:43:29.561Z,16.50
2024-02-11T02:45:56.301Z,20.17
2024-02-11T02:48:24.079Z,20.83
2024-02-11T02:50:50.850Z,18.53
2024-02-11T02:53:17.593Z,17.53
2024-02-11T02:55:44.431Z,15.70
2024-02-11T02:58:16.245Z,19.77
2024-02-11T03:00:43.450Z,20.83
2024-02-11T03:03:10.478Z,22.37
2024-02-11T03:05:42.342Z,17.40
2024-02-11T03:08:09.907Z,16.80
2024-02-11T03:10:37.012Z,27.33
2024-02-11T03:13:03.742Z,18.00
2024-02-11T03:15:31.426Z,18.10
2024-02-11T03:17:59.937Z,17.70
2024-02-11T03:20:29.355Z,20.03
2024-02-11T03:22:56.318Z,16.87
2024-02-11T03:25:23.093Z,23.20
2024-02-11T03:27:55.896Z,20.27
2024-02-11T03:30:23.738Z,22.27
2024-02-11T03:32:51.823Z,21.43
2024-02-11T03:35:18.949Z,18.53
2024-02-11T03:37:45.709Z,18.07
2024-02-11T03:40:14.142Z,18.87
2024-02-11T03:42:40.774Z,15.77
2024-02-11T03:45:10.863Z,15.90
2024-02-11T03:47:37.658Z,20.93
2024-02-11T03:50:06.096Z,21.57
2024-02-11T03:52:36.546Z,21.10
2024-02-11T03:55:12.503Z,19.10
2024-02-11T03:57:39.990Z,21.47
2024-02-11T04:00:12.378Z,21.60
2024-02-11T04:02:39.045Z,19.20
2024-02-11T04:05:06.280Z,20.27
2024-02-11T04:07:33.348Z,20.70
2024-02-11T04:10:18.740Z,20.13
2024-02-11T04:12:45.433Z,18.13
2024-02-11T04:15:12.182Z,17.97
2024-02-11T04:17:38.838Z,14.63
2024-02-11T04:20:10.578Z,14.30
2024-02-11T04:22:38.193Z,15.67
2024-02-11T04:25:06.718Z,16.50
2024-02-11T04:27:33.313Z,11.40
2024-02-11T04:30:00.168Z,16.03
2024-02-11T04:32:29.511Z,16.57
2024-02-11T04:34:56.120Z,16.00
2024-02-11T04:37:23.060Z,13.30
2024-02-11T04:39:49.677Z,18.43
2024-02-11T04:42:20.087Z,20.90
2024-02-11T04:44:49.073Z,17.43
2024-02-11T04:47:16.722Z,17.70
2024-02-11T04:49:43.337Z,27.30
2024-02-11T04:52:09.997Z,19.33
2024-02-11T04:54:36.787Z,17.93
2024-02-11T04:57:05.074Z,18.20
2024-02-11T04:59:31.715Z,14.47
2024-02-11T05:01:58.358Z,15.50
2024-02-11T05:04:26.592Z,23.77
2024-02-11T05:06:54.165Z,19.07
2024-02-11T05:09:20.921Z,18.83
2024-02-11T05:11:47.631Z,22.87
2024-02-11T05:14:14.339Z,21.47
2024-02-11T05:16:42.947Z,20.40
2024-02-11T05:19:09.985Z,24.20
2024-02-11T05:21:36.623Z,32.87
2024-02-11T05:24:03.319Z,20.70
2024-02-11T05:26:30.108Z,34.33
2024-02-11T05:28:58.853Z,22.60
2024-02-11T05:31:26.431Z,32.57
2024-02-11T05:33:53.359Z,16.23
2024-02-11T05:36:20.075Z,86.20
2024-02-11T05:38:48.834Z,63.27
2024-02-11T05:41:16.256Z,46.20
2024-02-11T05:43:43.050Z,57.30
2024-02-11T05:46:10.867Z,63.37
2024-02-11T05:48:39.026Z,49.37
2024-02-11T05:51:05.828Z,47.87
2024-02-11T05:53:34.558Z,35.37
2024-02-11T05:56:02.375Z,38.53
2024-02-11T05:58:29.573Z,29.30
2024-02-11T06:00:56.161Z,35.40
2024-02-11T06:03:23.645Z,32.17
2024-02-11T06:05:50.769Z,25.37
2024-02-11T06:08:18.236Z,29.00
2024-02-11T06:10:45.073Z,23.43
2024-02-11T06:13:11.979Z,23.00
2024-02-11T06:15:42.632Z,22.23
2024-02-11T06:18:11.301Z,26.00
2024-02-11T06:20:40.620Z,36.20
2024-02-11T06:23:08.476Z,34.97
2024-02-11T06:25:35.293Z,27.87
2024-02-11T06:28:03.304Z,31.10
2024-02-11T06:30:30.807Z,30.47
2024-02-11T06:32:58.096Z,32.27
2024-02-11T06:35:25.921Z,32.50
2024-02-11T06:37:53.993Z,31.60
2024-02-11T06:40:23.836Z,30.97
2024-02-11T06:42:54.372Z,24.90
2024-02-11T06:45:22.056Z,26.57
2024-02-11T06:47:49.720Z,28.20
2024-02-11T06:50:17.950Z,32.90
2024-02-11T06:52:46.324Z,26.17
2024-02-11T06:55:17.023Z,27.93
2024-02-11T06:57:47.210Z,29.47
2024-02-11T07:00:17.210Z,28.07
2024-02-11T07:02:44.483Z,26.47
2024-02-11T07:05:11.912Z,29.07
2024-02-11T07:07:40.118Z,23.40
2024-02-11T07:10:08.685Z,25.33
2024-02-11T07:12:35.945Z,18.73
2024-02-11T07:15:06.057Z,22.57
2024-02-11T07:17:34.336Z,18.50
2024-02-11T07:20:01.603Z,23.77
2024-02-11T07:22:28.510Z,22.07
2024-02-11T07:24:55.511Z,20.53
2024-02-11T07:27:22.257Z,24.80
2024-02-11T07:29:49.134Z,26.90
2024-02-11T07:32:16.191Z,27.17
2024-02-11T07:34:43.633Z,24.63
2024-02-11T07:37:11.745Z,29.17
2024-02-11T07:39:39.871Z,23.03
2024-02-11T07:42:07.834Z,28.60
2024-02-11T07:44:34.616Z,25.10
2024-02-11T07:47:01.330Z,33.37
2024-02-11T07:49:28.162Z,35.40
2024-02-11T07:51:57.074Z,26.17
2024-02-11T07:54:25.531Z,34.80
2024-02-11T07:56:53.730Z,29.83
2024-02-11T07:59:21.136Z,29.57
2024-02-11T08:01:48.727Z,29.90
2024-02-11T08:04:18.159Z,27.23
2024-02-11T08:06:45.380Z,32.70
2024-02-11T08:09:12.150Z,31.60
2024-02-11T08:11:38.989Z,37.20
2024-02-11T08:14:06.376Z,31.77
2024-02-11T08:16:33.530Z,32.80
2024-02-11T08:19:01.088Z,36.93
2024-02-11T08:21:27.952Z,37.17
2024-02-11T08:23:56.267Z,33.67
2024-02-11T08:26:24.449Z,30.40
2024-02-11T08:28:51.585Z,29.00
2024-02-11T08:31:19.574Z,33.60
2024-02-11T08:33:48.100Z,35.73
2024-02-11T08:36:15.908Z,30.67
2024-02-11T08:38:43.063Z,34.00
2024-02-11T08:41:11.701Z,31.43
2024-02-11T08:43:39.094Z,35.50
2024-02-11T08:46:06.413Z,38.60
2024-02-11T08:48:34.287Z,48.77
2024-02-11T08:51:02.180Z,35.27
2024-02-11T08:53:34.064Z,34.90
2024-02-11T08:56:01.320Z,30.73
2024-02-11T08:58:29.569Z,39.43
2024-02-11T09:00:57.292Z,32.53
2024-02-11T09:03:24.317Z,40.13
2024-02-11T09:05:51.781Z,30.03
2024-02-11T09:08:18.786Z,26.77
2024-02-11T09:10:45.844Z,31.63
2024-02-11T09:13:12.805Z,31.37
2024-02-11T09:15:40.879Z,31.80
2024-02-11T09:18:08.133Z,30.30
2024-02-11T09:20:37.887Z,24.37
2024-02-11T09:23:06.158Z,27.63
2024-02-11T09:25:33.755Z,22.30
2024-02-11T09:28:01.670Z,23.67
2024-02-11T09:30:28.550Z,23.00
2024-02-11T09:32:55.799Z,25.30
2024-02-11T09:35:24.471Z,26.13
2024-02-11T09:37:52.649Z,20.07
2024-02-11T09:40:20.298Z,18.97
2024-02-11T09:42:48.249Z,24.93
2024-02-11T09:45:19.148Z,18.60
2024-02-11T09:47:53.884Z,20.37
2024-02-11T09:50:23.528Z,19.53
2024-02-11T09:52:51.852Z,19.70
2024-02-11T09:55:22.407Z,18.67
2024-02-11T09:57:50.127Z,26.63
2024-02-11T10:00:19.121Z,20.10
2024-02-11T10:02:46.919Z,22.07
2024-02-11T10:05:17.903Z,18.33
2024-02-11T10:07:46.630Z,17.00
2024-02-11T10:10:16.027Z,15.20
2024-02-11T10:12:43.855Z,17.37
2024-02-11T10:15:19.234Z,19.00
2024-02-11T10:17:46.683Z,17.83
2024-02-11T10:20:14.518Z,15.03
2024-02-11T10:22:42.604Z,13.97
2024-02-11T10:25:10.812Z,14.90
2024-02-11T10:27:38.432Z,15.00
2024-02-11T10:30:14.675Z,13.93
2024-02-11T10:32:42.467Z,10.03
2024-02-11T10:35:13.333Z,10.03
2024-02-11T10:37:43.562Z,8.43
2024-02-11T10:40:13.101Z,5.87
2024-02-11T10:42:42.490Z,6.03
2024-02-11T10:45:12.392Z,3.73
2024-02-11T10:47:40.454Z,6.63
2024-02-11T10:50:08.317Z,3.47
2024-02-11T10:52:43.395Z,2.30
2024-02-11T10:55:14.338Z,2.40
2024-02-11T10:57:49.926Z,1.33
2024-02-11T11:00:22.486Z,1.63
2024-02-11T11:02:59.689Z,1.73
2024-02-11T11:05:31.865Z,1.40
2024-02-11T11:08:02.199Z,1.80
2024-02-11T11:10:39.156Z,2.90
2024-02-11T11:13:06.347Z,1.57
2024-02-11T11:15:34.056Z,1.47
2024-02-11T11:18:03.420Z,0.80
2024-02-11T11:20:34.978Z,1.13
2024-02-11T11:23:02.319Z,1.23
2024-02-11T11:25:33.453Z,1.10
2024-02-11T11:28:31.780Z,2.40
2024-02-11T11:30:58.950Z,0.73
2024-02-11T11:33:32.021Z,0.40
2024-02-11T11:36:01.240Z,0.77
2024-02-11T11:38:28.684Z,0.70
2024-02-11T11:40:56.094Z,0.40
2024-02-11T11:43:25.211Z,0.20
2024-02-11T11:45:58.457Z,1.33
2024-02-11T11:48:26.929Z,0.20
2024-02-11T11:51:01.842Z,0.23
2024-02-11T11:53:30.553Z,0.20
2024-02-11T11:55:59.141Z,0.27
2024-02-11T11:58:27.504Z,0.30
2024-02-11T12:01:02.566Z,0.40
2024-02-11T12:03:30.782Z,0.50
2024-02-11T12:05:58.530Z,1.30
2024-02-11T12:08:29.547Z,0.23
2024-02-11T12:11:01.880Z,1.33
2024-02-11T12:13:32.764Z,2.77
2024-02-11T12:16:01.211Z,1.03
2024-02-11T12:18:28.082Z,0.40
2024-02-11T12:20:56.115Z,0.50
2024-02-11T12:23:24.968Z,3.60
2024-02-11T12:25:55.916Z,0.80
2024-02-11T12:28:26.655Z,1.47
2024-02-11T12:31:14.449Z,0.73
2024-02-11T12:33:47.379Z,2.20
2024-02-11T12:36:16.219Z,1.33
2024-02-11T12:38:45.293Z,3.73
2024-02-11T12:41:13.930Z,1.03
2024-02-11T12:43:43.097Z,0.97
2024-02-11T12:46:13.227Z,0.50
2024-02-11T12:48:42.649Z,0.77
2024-02-11T12:51:11.902Z,0.93
2024-02-11T12:53:40.215Z,1.13
2024-02-11T12:56:08.774Z,0.80
2024-02-11T12:58:35.482Z,2.63
2024-02-11T13:01:04.225Z,1.10
2024-02-11T13:03:31.940Z,1.37
2024-02-11T13:05:58.913Z,0.93
2024-02-11T13:08:27.128Z,1.50
2024-02-11T13:10:54.093Z,2.30
2024-02-11T13:13:20.946Z,1.10
2024-02-11T13:15:47.664Z,1.83
2024-02-11T13:18:18.831Z,1.60
2024-02-11T13:20:46.565Z,1.10
2024-02-11T13:23:14.074Z,1.37
2024-02-11T13:25:42.213Z,1.27
2024-02-11T13:28:13.098Z,1.93
2024-02-11T13:30:39.902Z,1.63
2024-02-11T13:33:11.444Z,4.20
2024-02-11T13:35:39.257Z,2.17
2024-02-11T13:38:10.296Z,3.33
2024-02-11T13:40:37.539Z,3.50
2024-02-11T13:43:04.909Z,4.43
2024-02-11T13:45:32.216Z,4.30
2024-02-11T13:48:01.534Z,2.50
2024-02-11T13:50:31.976Z,2.20
2024-02-11T13:52:59.294Z,2.63
2024-02-11T13:55:26.182Z,2.33
2024-02-11T13:57:52.897Z,1.73
2024-02-11T14:00:23.091Z,1.47
2024-02-11T14:02:50.464Z,1.60
2024-02-11T14:05:17.588Z,1.00
2024-02-11T14:07:45.764Z,0.90
2024-02-11T14:10:12.760Z,1.23
2024-02-11T14:12:42.624Z,1.20
2024-02-11T14:15:12.731Z,1.37
2024-02-11T14:17:48.689Z,3.03
2024-02-11T14:20:17.809Z,1.73
2024-02-11T14:22:45.363Z,1.63
2024-02-11T14:25:16.812Z,2.03
2024-02-11T14:27:50.192Z,1.70
2024-02-11T14:30:20.417Z,1.50
2024-02-11T14:32:52.284Z,2.10
2024-02-11T14:35:22.464Z,1.73
2024-02-11T14:37:53.042Z,1.80
2024-02-11T14:40:21.850Z,1.53
2024-02-11T14:42:48.862Z,2.43
2024-02-11T14:45:16.693Z,1.40
2024-02-11T14:47:44.605Z,3.53
2024-02-11T14:50:11.958Z,3.50
2024-02-11T14:52:39.126Z,3.90
2024-02-11T14:55:07.999Z,3.37
2024-02-11T14:57:35.424Z,3.37
2024-02-11T15:00:03.707Z,3.37
2024-02-11T15:02:31.365Z,3.03
2024-02-11T15:04:58.360Z,3.43
2024-02-11T15:07:27.186Z,3.57
2024-02-11T15:09:57.326Z,2.30
2024-02-11T15:12:27.134Z,2.53
2024-02-11T15:14:54.868Z,2.00
2024-02-11T15:17:22.067Z,3.63
2024-02-11T15:19:49.487Z,4.53
2024-02-11T15:22:17.258Z,3.63
2024-02-11T15:24:46.435Z,2.63
2024-02-11T15:27:15.616Z,2.03
2024-02-11T15:29:44.813Z,3.47
2024-02-11T15:32:17.901Z,3.27
2024-02-11T15:34:44.872Z,2.50
2024-02-11T15:37:12.126Z,3.37
2024-02-11T15:39:39.696Z,3.70
2024-02-11T15:42:08.231Z,3.37
2024-02-11T15:44:38.666Z,2.17
2024-02-11T15:47:06.670Z,6.03
2024-02-11T15:49:35.907Z,4.97
2024-02-11T15:52:02.632Z,3.50
2024-02-11T15:54:29.426Z,3.07
2024-02-11T15:56:58.060Z,3.27
2024-02-11T15:59:25.813Z,3.17
2024-02-11T16:01:52.695Z,2.33
2024-02-11T16:04:19.415Z,3.13
2024-02-11T16:06:46.310Z,3.93
2024-02-11T16:09:13.067Z,5.57
2024-02-11T16:11:39.783Z,4.07
2024-02-11T16:14:08.733Z,3.63
2024-02-11T16:16:35.564Z,4.03
2024-02-11T16:19:02.578Z,5.00
2024-02-11T16:21:29.423Z,5.23
2024-02-11T16:23:56.115Z,4.73
2024-02-11T16:26:23.172Z,3.53
2024-02-11T16:28:49.972Z,3.70
2024-02-11T16:31:16.803Z,5.00
2024-02-11T16:33:45.507Z,4.73
2024-02-11T16:36:16.581Z,2.40
2024-02-11T16:38:43.277Z,4.10
2024-02-11T16:41:10.658Z,4.07
2024-02-11T16:43:37.918Z,2.83
2024-02-11T16:46:04.677Z,2.93
2024-02-11T16:48:35.187Z,3.63
2024-02-11T16:51:02.251Z,16.20
2024-02-11T16:53:29.462Z,3.40
2024-02-11T16:55:56.212Z,6.07
2024-02-11T16:58:23.141Z,5.83
2024-02-11T17:00:51.339Z,4.70
2024-02-11T17:03:18.060Z,7.67
2024-02-11T17:05:45.551Z,4.03
2024-02-11T17:08:12.432Z,3.90
2024-02-11T17:10:39.430Z,5.40
2024-02-11T17:13:06.382Z,4.83
2024-02-11T17:15:34.192Z,3.90
2024-02-11T17:18:01.244Z,3.23
2024-02-11T17:20:28.168Z,2.03
2024-02-11T17:22:55.567Z,3.00
2024-02-11T17:25:22.761Z,1.87
2024-02-11T17:27:51.419Z,4.23
2024-02-11T17:30:18.720Z,3.40
2024-02-11T17:32:51.981Z,3.57
2024-02-11T17:35:31.100Z,2.80
2024-02-11T17:37:59.062Z,5.87
2024-02-11T17:40:28.254Z,4.60
2024-02-11T17:42:55.694Z,2.87
2024-02-11T17:45:22.480Z,4.27
2024-02-11T17:47:53.460Z,4.43
2024-02-11T17:50:20.966Z,3.77
2024-02-11T17:52:48.005Z,5.10
2024-02-11T17:55:15.912Z,3.53
2024-02-11T17:57:44.999Z,4.20
2024-02-11T18:00:12.361Z,5.07
2024-02-11T18:02:42.519Z,3.10
2024-02-11T18:05:13.804Z,2.47
2024-02-11T18:07:53.575Z,2.57
2024-02-11T18:10:20.297Z,4.43
2024-02-11T18:12:48.179Z,2.43
2024-02-11T18:15:19.509Z,3.47
2024-02-11T18:17:46.771Z,5.67
2024-02-11T18:20:15.948Z,3.83
2024-02-11T18:22:45.370Z,4.13
2024-02-11T18:25:23.894Z,3.38
2024-02-11T18:27:56.992Z,5.13
2024-02-11T18:30:23.640Z,5.70
2024-02-11T18:32:50.294Z,4.17
2024-02-11T18:35:23.559Z,3.37
2024-02-11T18:37:51.030Z,3.40
2024-02-11T18:40:19.625Z,4.07
2024-02-11T18:42:46.550Z,1.87
2024-02-11T18:45:13.201Z,3.80
2024-02-11T18:47:40.992Z,3.30
2024-02-11T18:50:10.530Z,5.10
2024-02-11T18:52:39.108Z,3.73
2024-02-11T18:55:07.342Z,2.00
2024-02-11T18:57:34.014Z,7.37
2024-02-11T19:00:00.786Z,2.27
2024-02-11T19:02:27.484Z,5.23
2024-02-11T19:04:54.343Z,2.03
2024-02-11T19:07:21.133Z,4.60
2024-02-11T19:09:48.702Z,5.60
2024-02-11T19:12:15.376Z,2.83
2024-02-11T19:14:42.031Z,3.50
2024-02-11T19:17:12.227Z,2.97
2024-02-11T19:19:39.129Z,3.13
2024-02-11T19:22:13.677Z,3.40
2024-02-11T19:24:44.721Z,2.03
2024-02-11T19:27:12.312Z,1.33
2024-02-11T19:29:40.330Z,1.47
2024-02-11T19:32:07.765Z,1.67
2024-02-11T19:34:37.907Z,3.03
2024-02-11T19:37:07.201Z,1.23
2024-02-11T19:39:34.908Z,1.90
2024-02-11T19:42:01.905Z,2.13
2024-02-11T19:44:31.808Z,1.47
2024-02-11T19:46:59.941Z,1.37
2024-02-11T19:49:26.962Z,2.43
2024-02-11T19:51:53.779Z,2.60
2024-02-11T19:54:20.790Z,3.73
2024-02-11T19:56:47.624Z,1.97
2024-02-11T19:59:15.065Z,3.83
2024-02-11T20:01:41.753Z,1.80
2024-02-11T20:04:08.569Z,1.47
2024-02-11T20:06:35.506Z,1.87
2024-02-11T20:09:02.799Z,0.67
2024-02-11T20:11:30.318Z,1.70
2024-02-11T20:13:57.190Z,1.80
2024-02-11T20:16:25.490Z,2.60
2024-02-11T20:18:52.213Z,2.23
2024-02-11T20:21:20.151Z,4.27
2024-02-11T20:23:47.406Z,2.20
2024-02-11T20:26:17.967Z,9.83
2024-02-11T20:28:47.101Z,1.47
2024-02-11T20:31:15.014Z,1.30
2024-02-11T20:33:42.674Z,2.00
2024-02-11T20:36:12.905Z,2.30
2024-02-11T20:38:39.750Z,1.40
2024-02-11T20:41:08.152Z,1.63
2024-02-11T20:43:34.842Z,3.73
2024-02-11T20:46:01.685Z,6.47
2024-02-11T20:48:29.050Z,1.13
2024-02-11T20:50:57.781Z,2.27
2024-02-11T20:53:25.140Z,2.70
2024-02-11T20:55:54.636Z,1.23
2024-02-11T20:58:21.445Z,0.87
2024-02-11T21:00:48.462Z,2.33
2024-02-11T21:03:17.258Z,3.50
2024-02-11T21:05:47.073Z,1.20
2024-02-11T21:08:15.009Z,2.73
2024-02-11T21:10:41.755Z,1.47
2024-02-11T21:13:12.835Z,1.30
2024-02-11T21:15:41.224Z,4.43
2024-02-11T21:18:08.060Z,2.30
2024-02-11T21:20:34.820Z,1.60
2024-02-11T21:23:01.902Z,2.27
2024-02-11T21:25:29.127Z,1.60
2024-02-11T21:27:58.377Z,4.47
2024-02-11T21:30:28.680Z,1.10
2024-02-11T21:32:59.192Z,0.77
2024-02-11T21:35:27.329Z,1.20
2024-02-11T21:37:54.499Z,1.90
2024-02-11T21:40:22.280Z,4.87
2024-02-11T21:42:51.321Z,1.47
2024-02-11T21:45:19.328Z,4.00
2024-02-11T21:47:46.529Z,2.40
2024-02-11T21:50:14.531Z,2.90
2024-02-11T21:52:43.371Z,2.80
2024-02-11T21:55:11.363Z,1.80
2024-02-11T21:57:39.307Z,1.37
2024-02-11T22:00:12.870Z,1.50
2024-02-11T22:02:41.849Z,1.30
2024-02-11T22:05:09.265Z,3.87
2024-02-11T22:07:36.891Z,0.97
2024-02-11T22:10:09.163Z,1.37
2024-02-11T22:12:36.622Z,5.80
2024-02-11T22:15:05.609Z,1.77
2024-02-11T22:17:33.398Z,1.93
2024-02-11T22:20:02.748Z,0.87
2024-02-11T22:22:29.650Z,1.93
2024-02-11T22:24:57.205Z,7.30
2024-02-11T22:27:24.455Z,1.57
2024-02-11T22:29:52.325Z,1.23
2024-02-11T22:32:19.023Z,1.30
2024-02-11T22:34:45.956Z,2.83
2024-02-11T22:37:14.648Z,1.07
2024-02-11T22:39:41.817Z,0.73
2024-02-11T22:42:11.944Z,0.77
2024-02-11T22:44:42.815Z,1.17
2024-02-11T22:47:09.515Z,0.97
2024-02-11T22:49:37.859Z,0.90
2024-02-11T22:52:06.562Z,1.37
2024-02-11T22:54:33.970Z,0.60
2024-02-11T22:57:00.524Z,1.63
2024-02-11T22:59:27.800Z,1.03
2024-02-11T23:01:54.543Z,0.70
2024-02-11T23:04:22.807Z,0.80
2024-02-11T23:06:49.577Z,1.00
2024-02-11T23:09:17.638Z,0.77
2024-02-11T23:11:45.513Z,1.03
2024-02-11T23:14:12.257Z,0.90
2024-02-11T23:16:39.088Z,0.87
2024-02-11T23:19:08.884Z,3.77
2024-02-11T23:21:38.215Z,0.83
2024-02-11T23:24:05.324Z,0.97
2024-02-11T23:26:32.178Z,0.73
2024-02-11T23:28:58.851Z,0.73
2024-02-11T23:31:25.489Z,0.70
2024-02-11T23:33:52.288Z,2.30
2024-02-11T23:36:18.959Z,0.87
2024-02-11T23:38:46.052Z,1.27
2024-02-11T23:41:13.711Z,3.23
2024-02-11T23:43:41.660Z,0.83
2024-02-11T23:46:08.428Z,1.90
2024-02-11T23:48:38.155Z,1.93
2024-02-11T23:51:05.661Z,1.93
2024-02-11T23:53:33.641Z,1.97
2024-02-11T23:56:01.672Z,2.27
2024-02-11T23:58:34.254Z,1.63
